York, SC (29745)

07:28 PM EST on Φεβρουάριος 27, 2015 (GMT -0500)
Hilton Pond Center for Piedmont Natural History | Change Station
CLOSE
Current Station
Personal Weather Stations
Location: York, SC
Elevation: 705 ft
Nearby Weather Stations

Elev 705 ft 34.97 °N, 81.22 °W | Updated 2 seconds ago

Αίθριος
Αίθριος
40.1 ° F
Feels Like 40 ° F
N
0.0
Ανεμος Μεταβλητός Ανεμος from ΒΒΑ
Gusts 2.0 mph

Σήμερα
High -- | Low -- ° F
--% Chance of Precip.
Yesterday
High -- | Low -- ° F
Precip. -- in
6:57 AM 6:18 PM
Αμφίκυρτος, 73% visible
Ατμοσφαιρική Πίεση 30.42 in
Ορατότητα 10.0 Μίλια
Σύννεφα Αίθριος
Δείκτης Ψυχρότητας 40 ° F
Σημείο Δρόσου 32 ° F
Υγρασία 72%
Rainfall 0.00 in
Snow Depth Not available.
Υπεριώδης ακτινοβολία (UV) 0 out of 12
Pollen 6.50 out of 12
Air Quality Not available.
Flu Activity Not available.
METAR KUZA 272354Z AUTO 00000KT 10SM CLR 06/M03 A3039 RMK AO2 SLP300 T00611028 10111 20061 53016

More Conditions Fewer Conditions

Ατμοσφαιρική Πίεση 30.42 in
Ορατότητα 10.0 Μίλια
Σύννεφα Αίθριος
Δείκτης Ψυχρότητας 40 ° F
Σημείο Δρόσου 32 ° F
Υγρασία 72%
Rainfall 0.00 in
Snow Depth Not available.
Υπεριώδης ακτινοβολία (UV) 0 out of 12
Pollen 6.50 out of 12
Air Quality Not available.
Flu Activity Not available.
METAR KUZA 272354Z AUTO 00000KT 10SM CLR 06/M03 A3039 RMK AO2 SLP300 T00611028 10111 20061 53016

More Conditions Fewer Conditions

10-Day Weather Forecast

Almanac

Αστρονομία

Feb. 27, 2015 Rise Set
Actual Time
Civil Twilight
Nautical Twilight
Astronomical Twilight
Moon
Length Of Visible Light
Διάρκεια ημέρας
Tomorrow will be .
, % of the Moon is Illuminated

Today's Extremes

State Highs State Lows

Community

WunderPhotos

Upload Photos

1,800,891 photos uploaded!

WunderBlogs® & News

Nearby

Air Quality

  Air Quality AQ Index Pollutant
Not available.

Snow Depth

Station Depth Elevation

Earthquake Activity

City Distance Mag. Time & Date
Minimum magnitude displayed is 2.5.

Coastal Water Temperatures

Τοποθεσία Θερμοκρασία

Nearby Weather Stations